createdAt,value
2023-03-25T00:00:00.175Z,98303.59
2023-03-25T00:02:30.356Z,98371.22
2023-03-25T00:05:00.861Z,98409.31
2023-03-25T00:07:28.880Z,98452.63
2023-03-25T00:09:56.809Z,98443.81
2023-03-25T00:12:26.553Z,98408.56
2023-03-25T00:14:55.542Z,98471.13
2023-03-25T00:17:23.930Z,98478.75
2023-03-25T00:19:52.186Z,98488.13
2023-03-25T00:22:20.840Z,98498.31
2023-03-25T00:24:49.292Z,98523.06
2023-03-25T00:27:17.720Z,98425.22
2023-03-25T00:29:47.822Z,98352.53
2023-03-25T00:32:18.733Z,98454.44
2023-03-25T00:34:48.216Z,98471.66
2023-03-25T00:37:18.307Z,98551.81
2023-03-25T00:39:46.995Z,98566.41
2023-03-25T00:42:17.447Z,98579.28
2023-03-25T00:44:46.733Z,98583.50
2023-03-25T00:47:18.830Z,98564.09
2023-03-25T00:49:46.795Z,98597.19
2023-03-25T00:52:15.929Z,98610.09
2023-03-25T00:54:46.030Z,98624.56
2023-03-25T00:57:14.214Z,98549.91
2023-03-25T00:59:42.095Z,98635.44
2023-03-25T01:02:11.752Z,98636.19
2023-03-25T01:04:42.401Z,98646.53
2023-03-25T01:07:11.079Z,98628.84
2023-03-25T01:09:41.690Z,98661.91
2023-03-25T01:12:09.900Z,98664.53
2023-03-25T01:14:37.781Z,98652.13
2023-03-25T01:17:06.628Z,98677.22
2023-03-25T01:19:35.903Z,98661.16
2023-03-25T01:22:04.275Z,98626.78
2023-03-25T01:24:32.695Z,98703.75
2023-03-25T01:27:01.213Z,98620.25
2023-03-25T01:29:29.088Z,98715.47
2023-03-25T01:31:57.685Z,98695.13
2023-03-25T01:34:26.217Z,98724.81
2023-03-25T01:36:56.478Z,98734.16
2023-03-25T01:39:24.451Z,98652.28
2023-03-25T01:41:55.277Z,98745.19
2023-03-25T01:45:00.749Z,98751.13
2023-03-25T01:47:28.988Z,98659.00
2023-03-25T01:49:57.066Z,98689.66
2023-03-25T01:52:29.828Z,98670.91
2023-03-25T01:55:00.350Z,98774.34
2023-03-25T01:57:31.653Z,98662.84
2023-03-25T01:59:59.655Z,98773.16
2023-03-25T02:02:35.100Z,98743.53
2023-03-25T02:05:10.603Z,98796.03
2023-03-25T02:07:46.911Z,98806.38
2023-03-25T02:10:15.447Z,98798.53
2023-03-25T02:12:45.687Z,98801.06
2023-03-25T02:15:16.195Z,98773.44
2023-03-25T02:18:10.228Z,98821.47
2023-03-25T02:21:18.374Z,98830.31
2023-03-25T02:24:03.233Z,98816.09
2023-03-25T02:27:14.525Z,98600.44
2023-03-25T02:30:16.728Z,98861.88
2023-03-25T02:33:03.905Z,98838.19
2023-03-25T02:35:50.174Z,98854.69
2023-03-25T02:38:32.506Z,98866.56
2023-03-25T02:41:06.487Z,98779.31
2023-03-25T02:43:40.158Z,98870.50
2023-03-25T02:46:13.225Z,98822.69
2023-03-25T02:48:49.625Z,98892.69
2023-03-25T02:51:22.535Z,98879.03
2023-03-25T02:53:53.692Z,98907.00
2023-03-25T02:56:25.724Z,98902.63
2023-03-25T02:58:56.553Z,98914.63
2023-03-25T03:01:27.189Z,98912.88
2023-03-25T03:03:55.560Z,98916.22
2023-03-25T03:06:25.477Z,98917.06
2023-03-25T03:09:09.685Z,98920.56
2023-03-25T03:11:46.669Z,98913.75
2023-03-25T03:14:29.465Z,98912.81
2023-03-25T03:17:08.426Z,98929.19
2023-03-25T03:19:41.690Z,98905.53
2023-03-25T03:22:22.373Z,98873.03
2023-03-25T03:24:56.295Z,98931.88
2023-03-25T03:27:34.101Z,98943.13
2023-03-25T03:30:09.340Z,98852.63
2023-03-25T03:32:45.828Z,98949.88
2023-03-25T03:35:18.542Z,98943.78
2023-03-25T03:37:51.400Z,98946.31
2023-03-25T03:40:24.379Z,98936.75
2023-03-25T03:42:57.567Z,98912.88
2023-03-25T03:45:32.576Z,98793.34
2023-03-25T03:48:03.681Z,98944.97
2023-03-25T03:50:36.722Z,98960.38
2023-03-25T03:53:09.353Z,98965.50
2023-03-25T03:55:42.678Z,98959.50
2023-03-25T03:58:16.414Z,98961.22
2023-03-25T04:00:52.778Z,98972.47
2023-03-25T04:03:28.497Z,98953.91
2023-03-25T04:06:06.702Z,98953.66
2023-03-25T04:08:42.911Z,98986.00
2023-03-25T04:11:20.930Z,98942.03
2023-03-25T04:13:53.371Z,99006.38
2023-03-25T04:16:21.309Z,98902.66
2023-03-25T04:18:49.177Z,99002.06
2023-03-25T04:21:17.705Z,99003.75
2023-03-25T04:23:46.267Z,98948.22
2023-03-25T04:26:15.661Z,98956.00
2023-03-25T04:28:44.725Z,98931.94
2023-03-25T04:31:16.201Z,98981.19
2023-03-25T04:33:48.673Z,99008.69
2023-03-25T04:36:18.335Z,99008.56
2023-03-25T04:38:46.848Z,98989.06
2023-03-25T04:41:17.567Z,99010.97
2023-03-25T04:43:45.625Z,99002.13
2023-03-25T04:46:15.842Z,99021.22
2023-03-25T04:48:45.270Z,99009.97
2023-03-25T04:51:13.938Z,99014.06
2023-03-25T04:53:42.974Z,99023.56
2023-03-25T04:56:16.401Z,99032.25
2023-03-25T04:58:46.703Z,99049.47
2023-03-25T05:01:23.391Z,99036.22
2023-03-25T05:03:51.688Z,98944.53
2023-03-25T05:06:19.609Z,99079.00
2023-03-25T05:08:47.599Z,99079.00
2023-03-25T05:11:15.612Z,99076.44
2023-03-25T05:13:43.451Z,99084.16
2023-03-25T05:16:12.843Z,99080.72
2023-03-25T05:18:40.942Z,99081.53
2023-03-25T05:21:09.036Z,98948.81
2023-03-25T05:23:36.943Z,99081.72
2023-03-25T05:26:06.264Z,99083.53
2023-03-25T05:28:34.204Z,99084.53
2023-03-25T05:31:08.337Z,99069.88
2023-03-25T05:33:42.874Z,99063.78
2023-03-25T05:36:12.116Z,99067.16
2023-03-25T05:38:41.946Z,99046.94
2023-03-25T05:41:12.195Z,99061.06
2023-03-25T05:43:40.101Z,99079.25
2023-03-25T05:46:08.402Z,99091.31
2023-03-25T05:48:37.739Z,99089.75
2023-03-25T05:51:13.683Z,99103.63
2023-03-25T05:53:43.699Z,99107.16
2023-03-25T05:56:12.391Z,99112.44
2023-03-25T05:58:40.528Z,99067.63
2023-03-25T06:01:17.041Z,99117.78
2023-03-25T06:03:55.192Z,99111.72
2023-03-25T06:06:25.949Z,99102.00
2023-03-25T06:08:54.074Z,99110.44
2023-03-25T06:11:22.000Z,99114.84
2023-03-25T06:13:50.848Z,99076.94
2023-03-25T06:16:21.470Z,99125.38
2023-03-25T06:18:56.258Z,99082.16
2023-03-25T06:21:26.595Z,99120.06
2023-03-25T06:23:55.210Z,99140.41
2023-03-25T06:26:24.561Z,99073.72
2023-03-25T06:28:52.525Z,99088.44
2023-03-25T06:31:22.805Z,99139.88
2023-03-25T06:33:51.792Z,99149.50
2023-03-25T06:36:20.608Z,99151.38
2023-03-25T06:38:51.824Z,99152.19
2023-03-25T06:41:21.051Z,99155.00
2023-03-25T06:43:49.274Z,99113.19
2023-03-25T06:46:18.024Z,99136.13
2023-03-25T06:48:45.967Z,99160.06
2023-03-25T06:51:14.059Z,99075.38
2023-03-25T06:53:41.990Z,99138.88
2023-03-25T06:56:11.688Z,99157.34
2023-03-25T06:58:41.603Z,99159.94
2023-03-25T07:01:09.458Z,99162.47
2023-03-25T07:03:38.685Z,99101.59
2023-03-25T07:06:07.686Z,99137.47
2023-03-25T07:08:36.178Z,99172.84
2023-03-25T07:11:05.268Z,99177.00
2023-03-25T07:13:34.974Z,99138.00
2023-03-25T07:16:03.340Z,99134.03
2023-03-25T07:18:31.867Z,99186.03
2023-03-25T07:21:00.410Z,99080.59
2023-03-25T07:23:28.577Z,99097.31
2023-03-25T07:25:57.015Z,99184.47
2023-03-25T07:28:25.080Z,99191.59
2023-03-25T07:30:54.325Z,99194.47
2023-03-25T07:33:22.333Z,99154.41
2023-03-25T07:35:50.618Z,99087.09
2023-03-25T07:38:18.648Z,99152.56
2023-03-25T07:40:50.358Z,99099.31
2023-03-25T07:43:18.627Z,99189.00
2023-03-25T07:45:46.468Z,99199.72
2023-03-25T07:48:18.554Z,99203.41
2023-03-25T07:50:49.398Z,99196.41
2023-03-25T07:53:17.579Z,99191.91
2023-03-25T07:55:46.521Z,99187.63
2023-03-25T07:58:14.594Z,99094.34
2023-03-25T08:00:42.588Z,99201.38
2023-03-25T08:03:11.857Z,99197.13
2023-03-25T08:05:46.687Z,99200.59
2023-03-25T08:08:14.809Z,99199.81
2023-03-25T08:10:44.078Z,99203.34
2023-03-25T08:13:12.242Z,99208.50
2023-03-25T08:15:40.364Z,99168.94
2023-03-25T08:18:08.640Z,99117.94
2023-03-25T08:20:37.030Z,99210.31
2023-03-25T08:23:10.520Z,99198.44
2023-03-25T08:25:38.965Z,99162.22
2023-03-25T08:28:07.153Z,99176.41
2023-03-25T08:30:39.941Z,99209.56
2023-03-25T08:33:08.624Z,99211.97
2023-03-25T08:35:37.757Z,99190.00
2023-03-25T08:38:07.174Z,99208.13
2023-03-25T08:40:35.978Z,99201.97
2023-03-25T08:43:06.236Z,99195.66
2023-03-25T08:45:35.087Z,99039.97
2023-03-25T08:48:03.325Z,99181.13
2023-03-25T08:50:31.561Z,99105.94
2023-03-25T08:52:59.579Z,99207.84
2023-03-25T08:55:28.858Z,99201.75
2023-03-25T08:57:56.658Z,99207.69
2023-03-25T09:00:26.574Z,99207.59
2023-03-25T09:02:54.731Z,99204.88
2023-03-25T09:05:22.740Z,99183.72
2023-03-25T09:07:50.718Z,99121.31
2023-03-25T09:10:18.682Z,99199.66
2023-03-25T09:12:47.907Z,99111.97
2023-03-25T09:15:15.864Z,99206.91
2023-03-25T09:17:43.910Z,99203.41
2023-03-25T09:20:12.506Z,99203.34
2023-03-25T09:22:41.014Z,99184.16
2023-03-25T09:25:10.152Z,99047.38
2023-03-25T09:27:38.273Z,99212.53
2023-03-25T09:30:09.809Z,99204.72
2023-03-25T09:32:38.397Z,99136.19
2023-03-25T09:35:07.087Z,99159.09
2023-03-25T09:37:35.482Z,99209.94
2023-03-25T09:40:07.330Z,99203.13
2023-03-25T09:42:46.248Z,99211.03
2023-03-25T09:45:28.863Z,99212.75
2023-03-25T09:48:03.258Z,99182.69
2023-03-25T09:50:33.114Z,99208.97
2023-03-25T09:53:06.237Z,99206.22
2023-03-25T09:55:40.559Z,99118.19
2023-03-25T09:58:36.679Z,99175.19
2023-03-25T10:01:20.294Z,99209.50
2023-03-25T10:04:06.282Z,99217.31
2023-03-25T10:06:40.215Z,99198.72
2023-03-25T10:09:32.799Z,99213.91
2023-03-25T10:12:12.567Z,99096.16
2023-03-25T10:15:00.983Z,99214.69
2023-03-25T10:17:43.339Z,99219.84
2023-03-25T10:20:19.991Z,99206.88
2023-03-25T10:23:02.075Z,99199.72
2023-03-25T10:25:34.775Z,99197.78
2023-03-25T10:28:05.719Z,99202.03
2023-03-25T10:30:37.354Z,99189.00
2023-03-25T10:33:16.846Z,99192.28
2023-03-25T10:35:49.375Z,99192.13
2023-03-25T10:38:20.890Z,99101.63
2023-03-25T10:40:53.147Z,99168.84
2023-03-25T10:43:28.324Z,99138.53
2023-03-25T10:46:01.794Z,99197.25
2023-03-25T10:48:32.648Z,99194.44
2023-03-25T10:51:07.015Z,99203.06
2023-03-25T10:53:35.677Z,99168.75
2023-03-25T10:56:08.793Z,98934.13
2023-03-25T10:58:39.386Z,99197.13
2023-03-25T11:01:12.753Z,99189.38
2023-03-25T11:03:45.064Z,99179.06
2023-03-25T11:06:23.670Z,99153.72
2023-03-25T11:08:59.294Z,99139.75
2023-03-25T11:11:33.615Z,99148.03
2023-03-25T11:14:02.507Z,99133.19
2023-03-25T11:16:35.063Z,99014.13
2023-03-25T11:19:05.929Z,99128.63
2023-03-25T11:21:36.534Z,99081.53
2023-03-25T11:24:08.137Z,99058.31
2023-03-25T11:26:39.886Z,99142.81
2023-03-25T11:29:14.462Z,99155.53
2023-03-25T11:31:43.959Z,99124.97
2023-03-25T11:34:20.554Z,99128.56
2023-03-25T11:36:56.406Z,99115.38
2023-03-25T11:39:30.752Z,99053.31
2023-03-25T11:41:59.761Z,99129.50
2023-03-25T11:44:30.197Z,99131.09
2023-03-25T11:47:04.191Z,99132.53
2023-03-25T11:49:37.328Z,99136.59
2023-03-25T11:52:09.389Z,99153.72
2023-03-25T11:54:38.667Z,99135.94
2023-03-25T11:57:12.388Z,99129.69
2023-03-25T11:59:45.632Z,99135.75
2023-03-25T12:02:24.738Z,99177.81
2023-03-25T12:04:59.615Z,99143.09
2023-03-25T12:07:27.642Z,99191.28
2023-03-25T12:09:57.316Z,99181.66
2023-03-25T12:12:44.597Z,99195.91
2023-03-25T12:15:22.526Z,99206.41
2023-03-25T12:18:05.626Z,99208.31
2023-03-25T12:20:44.005Z,99179.13
2023-03-25T12:23:21.798Z,99223.28
2023-03-25T12:25:58.905Z,99229.63
2023-03-25T12:28:47.661Z,99230.69
2023-03-25T12:31:29.507Z,99214.56
2023-03-25T12:34:10.436Z,99210.41
2023-03-25T12:36:51.549Z,99204.41
2023-03-25T12:39:42.780Z,99157.34
2023-03-25T12:42:25.714Z,99202.72
2023-03-25T12:45:18.147Z,99202.75
2023-03-25T12:47:56.518Z,99203.59
2023-03-25T12:50:37.587Z,99207.88
2023-03-25T12:53:23.387Z,99194.56
2023-03-25T12:56:06.171Z,99220.78
2023-03-25T12:59:03.737Z,99225.75
2023-03-25T13:01:40.569Z,99222.19
2023-03-25T13:04:28.410Z,99229.88
2023-03-25T13:07:02.125Z,99212.78
2023-03-25T13:09:36.131Z,99213.69
2023-03-25T13:12:11.667Z,99222.25
2023-03-25T13:14:46.000Z,99148.19
2023-03-25T13:17:22.461Z,99217.91
2023-03-25T13:20:04.190Z,99228.56
2023-03-25T13:22:36.581Z,99209.13
2023-03-25T13:25:08.346Z,99237.13
2023-03-25T13:27:42.720Z,99079.56
2023-03-25T13:30:21.234Z,99233.47
2023-03-25T13:32:55.009Z,99179.75
2023-03-25T13:35:35.272Z,99195.38
2023-03-25T13:38:08.183Z,99179.47
2023-03-25T13:40:44.535Z,99194.25
2023-03-25T13:43:22.785Z,99252.16
2023-03-25T13:45:56.259Z,99205.56
2023-03-25T13:48:28.876Z,99250.47
2023-03-25T13:50:58.980Z,99109.75
2023-03-25T13:53:33.232Z,99252.34
2023-03-25T13:56:27.589Z,99253.28
2023-03-25T13:59:15.161Z,99243.78
2023-03-25T14:02:11.053Z,99239.22
2023-03-25T14:04:59.142Z,99124.75
2023-03-25T14:08:01.807Z,99202.91
2023-03-25T14:10:40.552Z,99240.03
2023-03-25T14:13:15.078Z,99188.19
2023-03-25T14:15:53.459Z,99225.25
2023-03-25T14:18:22.533Z,99200.47
2023-03-25T14:20:51.638Z,99238.97
2023-03-25T14:23:23.278Z,99243.31
2023-03-25T14:25:55.930Z,99251.28
2023-03-25T14:28:37.611Z,99247.19
2023-03-25T14:31:30.385Z,99246.00
2023-03-25T14:34:23.428Z,99207.88
2023-03-25T14:37:30.594Z,99252.75
2023-03-25T14:40:00.929Z,99107.25
2023-03-25T14:42:45.110Z,99217.25
2023-03-25T14:45:42.384Z,99243.31
2023-03-25T14:48:26.427Z,99258.66
2023-03-25T14:51:20.954Z,99040.09
2023-03-25T14:53:56.378Z,99254.88
2023-03-25T14:56:27.544Z,99251.22
2023-03-25T14:58:58.374Z,99258.09
2023-03-25T15:01:32.829Z,99239.22
2023-03-25T15:04:14.440Z,99225.00
2023-03-25T15:06:44.675Z,99080.72
2023-03-25T15:09:16.514Z,99220.47
2023-03-25T15:11:46.575Z,99255.81
2023-03-25T15:14:18.032Z,99205.31
2023-03-25T15:17:01.478Z,99184.06
2023-03-25T15:19:30.050Z,99259.16
2023-03-25T15:22:19.466Z,99164.50
2023-03-25T15:24:57.091Z,99266.84
2023-03-25T15:27:54.982Z,99271.94
2023-03-25T15:30:41.776Z,99272.88
2023-03-25T15:33:24.811Z,99262.56
2023-03-25T15:36:01.854Z,99231.59
2023-03-25T15:38:44.521Z,99253.31
2023-03-25T15:41:27.453Z,99238.41
2023-03-25T15:44:24.429Z,99254.25
2023-03-25T15:47:13.500Z,99098.44
2023-03-25T15:50:07.878Z,99178.38
2023-03-25T15:52:56.826Z,98966.44
2023-03-25T15:55:29.991Z,99246.25
2023-03-25T15:58:06.739Z,99276.94
2023-03-25T16:00:43.286Z,99279.72
2023-03-25T16:03:16.499Z,99278.03
2023-03-25T16:05:54.189Z,99103.22
2023-03-25T16:08:32.892Z,99301.81
2023-03-25T16:11:15.776Z,99297.41
2023-03-25T16:13:43.935Z,99249.00
2023-03-25T16:16:17.696Z,99267.09
2023-03-25T16:18:50.542Z,99308.59
2023-03-25T16:21:25.544Z,99257.28
2023-03-25T16:24:04.909Z,99314.44
2023-03-25T16:26:39.465Z,99319.59
2023-03-25T16:29:11.683Z,99345.44
2023-03-25T16:31:43.846Z,99214.69
2023-03-25T16:34:17.572Z,99326.31
2023-03-25T16:36:49.063Z,99298.16
2023-03-25T16:39:18.272Z,99329.84
2023-03-25T16:41:47.506Z,98943.13
2023-03-25T16:44:21.240Z,99280.28
2023-03-25T16:46:50.384Z,99332.97
2023-03-25T16:49:26.416Z,99176.47
2023-03-25T16:51:56.381Z,99247.78
2023-03-25T16:54:32.497Z,98872.09
2023-03-25T16:57:02.126Z,99106.25
2023-03-25T16:59:34.039Z,99275.34
2023-03-25T17:02:03.617Z,99250.69
2023-03-25T17:04:42.263Z,99278.53
2023-03-25T17:07:18.311Z,99294.94
2023-03-25T17:09:51.730Z,99376.53
2023-03-25T17:12:22.350Z,99378.22
2023-03-25T17:14:53.838Z,99292.41
2023-03-25T17:17:37.572Z,99389.34
2023-03-25T17:20:09.329Z,99390.81
2023-03-25T17:22:40.438Z,99315.59
2023-03-25T17:25:18.887Z,99381.41
2023-03-25T17:27:49.221Z,99394.28
2023-03-25T17:30:20.967Z,99294.28
2023-03-25T17:32:49.476Z,99108.16
2023-03-25T17:35:21.820Z,99348.53
2023-03-25T17:37:51.873Z,99412.94
2023-03-25T17:40:23.521Z,99270.03
2023-03-25T17:42:51.499Z,99426.47
2023-03-25T17:45:19.968Z,99432.59
2023-03-25T17:47:47.985Z,99440.38
2023-03-25T17:50:17.658Z,99360.19
2023-03-25T17:52:45.748Z,99362.75
2023-03-25T17:55:15.357Z,99440.09
2023-03-25T17:57:43.502Z,99449.53
2023-03-25T18:00:18.665Z,99442.47
2023-03-25T18:02:47.887Z,99354.59
2023-03-25T18:05:16.164Z,99378.44
2023-03-25T18:07:44.476Z,99457.00
2023-03-25T18:10:19.789Z,99460.38
2023-03-25T18:12:47.994Z,99466.41
2023-03-25T18:15:16.059Z,99387.75
2023-03-25T18:17:44.169Z,99464.50
2023-03-25T18:20:17.023Z,99471.34
2023-03-25T18:22:45.359Z,99355.59
2023-03-25T18:25:14.032Z,99484.97
2023-03-25T18:27:44.413Z,99479.81
2023-03-25T18:30:21.263Z,99356.88
2023-03-25T18:32:49.583Z,99488.34
2023-03-25T18:35:18.424Z,99235.59
2023-03-25T18:37:48.634Z,99385.16
2023-03-25T18:40:23.539Z,99384.34
2023-03-25T18:42:53.219Z,99497.34
2023-03-25T18:45:22.338Z,99498.13
2023-03-25T18:47:50.617Z,99513.66
2023-03-25T18:50:24.964Z,99506.75
2023-03-25T18:52:52.963Z,99501.53
2023-03-25T18:55:20.935Z,99423.19
2023-03-25T18:57:48.779Z,99472.88
2023-03-25T19:00:23.989Z,99528.00
2023-03-25T19:02:53.065Z,99524.56
2023-03-25T19:05:21.630Z,99421.00
2023-03-25T19:07:50.356Z,99490.91
2023-03-25T19:10:21.623Z,99521.59
2023-03-25T19:12:49.911Z,99518.94
2023-03-25T19:15:21.043Z,99519.84
2023-03-25T19:17:50.038Z,99527.41
2023-03-25T19:20:20.845Z,99527.03
2023-03-25T19:22:49.512Z,99495.06
2023-03-25T19:25:18.770Z,99441.94
2023-03-25T19:27:47.696Z,99423.31
2023-03-25T19:30:17.906Z,99522.44
2023-03-25T19:32:48.074Z,99532.66
2023-03-25T19:35:17.943Z,99547.97
2023-03-25T19:37:50.977Z,99532.50
2023-03-25T19:40:22.114Z,99530.66
2023-03-25T19:42:51.460Z,99540.88
2023-03-25T19:45:20.522Z,99539.03
2023-03-25T19:47:52.422Z,99543.31
2023-03-25T19:50:21.966Z,99546.59
2023-03-25T19:52:51.683Z,99518.31
2023-03-25T19:55:21.256Z,99543.22
2023-03-25T19:57:50.017Z,99549.19
2023-03-25T20:00:20.630Z,99542.25
2023-03-25T20:03:23.113Z,99553.44
2023-03-25T20:06:03.513Z,99517.91
2023-03-25T20:08:32.190Z,99550.78
2023-03-25T20:11:01.158Z,99554.88
2023-03-25T20:13:29.336Z,99555.63
2023-03-25T20:15:57.264Z,99565.91
2023-03-25T20:18:26.688Z,99559.16
2023-03-25T20:20:54.515Z,99554.81
2023-03-25T20:23:22.959Z,99551.34
2023-03-25T20:25:52.549Z,99547.81
2023-03-25T20:28:20.521Z,99551.94
2023-03-25T20:30:48.592Z,99540.84
2023-03-25T20:33:16.551Z,99557.06
2023-03-25T20:35:45.963Z,99552.09
2023-03-25T20:38:14.453Z,99516.88
2023-03-25T20:40:45.013Z,99523.16
2023-03-25T20:43:14.851Z,99538.34
2023-03-25T20:45:43.876Z,99574.28
2023-03-25T20:48:11.985Z,99355.06
2023-03-25T20:50:40.476Z,99546.88
2023-03-25T20:53:09.957Z,99567.03
2023-03-25T20:55:37.862Z,99565.44
2023-03-25T20:58:08.790Z,99432.59
2023-03-25T21:00:37.562Z,99566.72
2023-03-25T21:03:06.240Z,99577.00
2023-03-25T21:05:34.420Z,99475.88
2023-03-25T21:08:02.809Z,99422.91
2023-03-25T21:10:32.052Z,99583.59
2023-03-25T21:12:59.977Z,99580.16
2023-03-25T21:15:28.898Z,99583.53
2023-03-25T21:17:56.841Z,99585.03
2023-03-25T21:20:27.958Z,99575.72
2023-03-25T21:22:57.336Z,99532.13
2023-03-25T21:25:25.295Z,99585.22
2023-03-25T21:27:54.502Z,99590.19
2023-03-25T21:30:22.731Z,99481.16
2023-03-25T21:32:50.623Z,99509.28
2023-03-25T21:35:18.590Z,99595.88
2023-03-25T21:37:47.218Z,99598.38
2023-03-25T21:40:15.372Z,99597.50
2023-03-25T21:42:47.134Z,99513.28
2023-03-25T21:45:18.251Z,99576.91
2023-03-25T21:50:21.836Z,99480.66
2023-03-25T21:52:49.781Z,99607.63
2023-03-25T21:55:19.593Z,99600.72
2023-03-25T21:58:05.548Z,99596.63
2023-03-25T22:00:46.234Z,99596.53
2023-03-25T22:03:17.369Z,99606.81
2023-03-25T22:05:45.972Z,99514.66
2023-03-25T22:08:26.292Z,99615.25
2023-03-25T22:11:02.301Z,99580.91
2023-03-25T22:13:30.562Z,99608.25
2023-03-25T22:16:00.041Z,99526.31
2023-03-25T22:18:29.107Z,99603.91
2023-03-25T22:21:07.060Z,99612.44
2023-03-25T22:23:35.159Z,99619.25
2023-03-25T22:26:03.590Z,99608.91
2023-03-25T22:28:31.691Z,99542.53
2023-03-25T22:31:01.519Z,99546.63
2023-03-25T22:33:30.731Z,99618.28
2023-03-25T22:36:09.063Z,99609.78
2023-03-25T22:38:37.108Z,99620.06
2023-03-25T22:41:06.021Z,99634.69
2023-03-25T22:43:39.087Z,99629.56
2023-03-25T22:46:11.683Z,99632.13
2023-03-25T22:48:40.245Z,99506.81
2023-03-25T22:51:15.618Z,99629.63
2023-03-25T22:53:43.901Z,99536.72
2023-03-25T22:56:12.895Z,99629.72
2023-03-25T22:58:41.502Z,99642.56
2023-03-25T23:01:20.072Z,99610.88
2023-03-25T23:03:48.534Z,99631.41
2023-03-25T23:06:17.120Z,99606.53
2023-03-25T23:08:45.322Z,99606.44
2023-03-25T23:11:17.144Z,99635.50
2023-03-25T23:13:48.079Z,99393.13
2023-03-25T23:16:20.538Z,99632.75
2023-03-25T23:18:49.202Z,99609.50
2023-03-25T23:21:20.064Z,99547.63
2023-03-25T23:23:52.198Z,99578.19
2023-03-25T23:26:24.841Z,99567.72
2023-03-25T23:28:54.697Z,99594.91
2023-03-25T23:31:28.610Z,99627.75
2023-03-25T23:33:58.472Z,99650.66
2023-03-25T23:36:28.396Z,99641.09
2023-03-25T23:38:56.855Z,99644.56
2023-03-25T23:41:25.937Z,99622.88
2023-03-25T23:43:55.977Z,99640.22
2023-03-25T23:46:27.361Z,99641.91
2023-03-25T23:48:55.950Z,99629.00
2023-03-25T23:51:25.567Z,99650.25
2023-03-25T23:53:53.956Z,99642.63
2023-03-25T23:56:24.699Z,99583.69
2023-03-25T23:58:53.243Z,99549.34
